createdAt,value
2023-02-13T00:00:19.182Z,3.30
2023-02-13T00:03:06.226Z,3.30
2023-02-13T00:05:52.805Z,3.20
2023-02-13T00:08:39.541Z,3.20
2023-02-13T00:11:25.787Z,3.10
2023-02-13T00:14:13.765Z,3.20
2023-02-13T00:17:00.624Z,3.20
2023-02-13T00:19:47.005Z,3.30
2023-02-13T00:22:36.726Z,3.40
2023-02-13T00:25:23.362Z,3.40
2023-02-13T00:28:09.780Z,3.50
2023-02-13T00:31:04.621Z,3.50
2023-02-13T00:33:51.472Z,3.40
2023-02-13T00:36:38.142Z,3.30
2023-02-13T00:39:24.501Z,3.30
2023-02-13T00:42:11.235Z,3.20
2023-02-13T00:44:57.560Z,3.00
2023-02-13T00:47:45.379Z,2.90
2023-02-13T00:50:31.837Z,2.80
2023-02-13T00:53:18.300Z,2.80
2023-02-13T00:56:07.909Z,2.60
2023-02-13T00:58:56.185Z,2.50
2023-02-13T01:01:44.946Z,2.60
2023-02-13T01:04:32.870Z,2.60
2023-02-13T01:07:19.593Z,2.80
2023-02-13T01:10:07.099Z,3.00
2023-02-13T01:12:53.863Z,3.00
2023-02-13T01:15:41.247Z,3.10
2023-02-13T01:18:28.144Z,3.10
2023-02-13T01:21:20.142Z,3.20
2023-02-13T01:24:07.755Z,3.20
2023-02-13T01:26:55.546Z,3.30
2023-02-13T01:29:42.106Z,3.30
2023-02-13T01:32:28.950Z,3.30
2023-02-13T01:35:16.776Z,3.30
2023-02-13T01:38:04.781Z,3.20
2023-02-13T01:40:54.374Z,3.30
2023-02-13T01:43:50.162Z,3.30
2023-02-13T01:46:39.770Z,3.30
2023-02-13T01:49:27.430Z,3.30
2023-02-13T01:52:14.799Z,3.30
2023-02-13T01:55:02.454Z,3.40
2023-02-13T01:57:54.613Z,3.40
2023-02-13T02:00:42.402Z,3.40
2023-02-13T02:03:32.801Z,3.30
2023-02-13T02:06:28.263Z,3.30
2023-02-13T02:09:20.453Z,3.10
2023-02-13T02:12:19.054Z,2.90
2023-02-13T02:15:06.963Z,2.70
2023-02-13T02:17:53.598Z,2.80
2023-02-13T02:21:16.668Z,2.70
2023-02-13T02:24:27.278Z,2.70
2023-02-13T02:27:46.883Z,2.80
2023-02-13T02:31:00.127Z,2.90
2023-02-13T02:34:06.042Z,2.90
2023-02-13T02:37:11.290Z,3.00
2023-02-13T02:40:09.271Z,3.10
2023-02-13T02:43:20.757Z,3.00
2023-02-13T02:46:18.114Z,2.90
2023-02-13T02:49:26.773Z,2.80
2023-02-13T02:52:19.265Z,2.50
2023-02-13T02:55:11.486Z,2.40
2023-02-13T02:58:31.109Z,2.50
2023-02-13T03:01:41.558Z,2.40
2023-02-13T03:04:52.093Z,2.40
2023-02-13T03:07:38.901Z,2.30
2023-02-13T03:10:49.316Z,2.30
2023-02-13T03:13:42.914Z,2.20
2023-02-13T03:16:46.765Z,2.10
2023-02-13T03:20:02.641Z,2.00
2023-02-13T03:23:07.018Z,2.00
2023-02-13T03:26:33.276Z,1.80
2023-02-13T03:29:53.019Z,1.80
2023-02-13T03:32:47.398Z,1.80
2023-02-13T03:36:00.414Z,1.70
2023-02-13T03:38:53.610Z,1.60
2023-02-13T03:41:42.619Z,1.60
2023-02-13T03:44:33.702Z,1.60
2023-02-13T03:47:20.612Z,1.50
2023-02-13T03:50:09.047Z,1.50
2023-02-13T03:53:01.504Z,1.50
2023-02-13T03:56:06.931Z,1.50
2023-02-13T03:59:16.970Z,1.50
2023-02-13T04:02:11.551Z,1.50
2023-02-13T04:05:05.931Z,1.40
2023-02-13T04:07:52.329Z,1.40
2023-02-13T04:10:50.673Z,1.40
2023-02-13T04:13:43.101Z,1.40
2023-02-13T04:16:33.049Z,1.50
2023-02-13T04:19:20.803Z,1.40
2023-02-13T04:22:07.418Z,1.30
2023-02-13T04:24:54.197Z,1.30
2023-02-13T04:27:42.306Z,1.30
2023-02-13T04:30:29.166Z,1.30
2023-02-13T04:33:15.703Z,1.30
2023-02-13T04:36:02.050Z,1.40
2023-02-13T04:38:48.768Z,1.40
2023-02-13T04:41:35.738Z,1.40
2023-02-13T04:44:23.822Z,1.40
2023-02-13T04:47:10.340Z,1.40
2023-02-13T04:49:56.966Z,1.40
2023-02-13T04:52:43.274Z,1.30
2023-02-13T04:55:30.040Z,1.40
2023-02-13T04:58:16.796Z,1.40
2023-02-13T05:01:12.122Z,1.30
2023-02-13T05:03:58.884Z,1.30
2023-02-13T05:06:45.578Z,1.30
2023-02-13T05:09:31.912Z,1.40
2023-02-13T05:12:19.258Z,1.40
2023-02-13T05:15:06.650Z,1.40
2023-02-13T05:17:54.843Z,1.40
2023-02-13T05:20:41.517Z,1.50
2023-02-13T05:23:26.818Z,1.50
2023-02-13T05:26:13.304Z,1.50
2023-02-13T05:29:17.001Z,1.50
2023-02-13T05:32:03.566Z,1.30
2023-02-13T05:34:51.416Z,1.20
2023-02-13T05:37:38.278Z,1.20
2023-02-13T05:40:24.659Z,1.20
2023-02-13T05:43:10.981Z,1.20
2023-02-13T05:46:05.294Z,1.10
2023-02-13T05:48:52.920Z,1.10
2023-02-13T05:51:40.625Z,1.10
2023-02-13T05:54:27.019Z,1.10
2023-02-13T05:57:13.839Z,1.20
2023-02-13T06:00:00.127Z,1.20
2023-02-13T06:02:46.519Z,1.30
2023-02-13T06:05:33.424Z,1.30
2023-02-13T06:08:21.588Z,1.20
2023-02-13T06:11:08.191Z,1.20
2023-02-13T06:13:54.497Z,1.10
2023-02-13T06:16:41.659Z,1.20
2023-02-13T06:19:28.167Z,1.30
2023-02-13T06:22:14.536Z,1.30
2023-02-13T06:25:02.282Z,1.20
2023-02-13T06:27:49.273Z,1.20
2023-02-13T06:30:36.422Z,1.30
2023-02-13T06:33:23.292Z,1.20
2023-02-13T06:36:09.741Z,1.20
2023-02-13T06:38:56.049Z,1.20
2023-02-13T06:41:43.965Z,1.30
2023-02-13T06:44:30.668Z,1.40
2023-02-13T06:47:17.014Z,1.40
2023-02-13T06:50:03.538Z,1.40
2023-02-13T06:52:52.195Z,1.40
2023-02-13T06:55:39.426Z,1.30
2023-02-13T06:58:27.335Z,1.40
2023-02-13T07:01:14.007Z,1.30
2023-02-13T07:04:00.871Z,1.30
2023-02-13T07:06:47.294Z,1.30
2023-02-13T07:09:34.430Z,1.30
2023-02-13T07:12:21.325Z,1.20
2023-02-13T07:15:10.551Z,1.20
2023-02-13T07:17:58.090Z,1.30
2023-02-13T07:20:44.864Z,1.30
2023-02-13T07:23:31.644Z,1.50
2023-02-13T07:26:17.899Z,1.60
2023-02-13T07:29:11.390Z,1.60
2023-02-13T07:32:00.129Z,1.80
2023-02-13T07:35:00.879Z,1.90
2023-02-13T07:37:48.213Z,2.00
2023-02-13T07:40:34.414Z,2.20
2023-02-13T07:43:21.052Z,2.50
2023-02-13T07:46:07.642Z,2.70
2023-02-13T07:48:56.237Z,3.10
2023-02-13T07:51:42.656Z,3.70
2023-02-13T07:54:29.104Z,4.30
2023-02-13T07:57:15.858Z,4.70
2023-02-13T08:00:02.748Z,4.90
2023-02-13T08:03:00.249Z,5.30
2023-02-13T08:05:49.421Z,5.70
2023-02-13T08:08:37.768Z,5.80
2023-02-13T08:11:47.073Z,5.40
2023-02-13T08:14:33.794Z,5.50
2023-02-13T08:17:20.589Z,5.70
2023-02-13T08:20:09.291Z,5.70
2023-02-13T08:23:04.331Z,5.60
2023-02-13T08:25:51.110Z,5.80
2023-02-13T08:28:38.236Z,5.60
2023-02-13T08:31:25.061Z,5.80
2023-02-13T08:34:11.894Z,6.20
2023-02-13T08:36:58.342Z,6.00
2023-02-13T08:39:46.615Z,6.40
2023-02-13T08:42:33.406Z,6.70
2023-02-13T08:45:19.803Z,6.70
2023-02-13T08:48:07.481Z,6.40
2023-02-13T08:50:54.147Z,6.30
2023-02-13T08:53:42.324Z,6.30
2023-02-13T08:56:30.047Z,6.40
2023-02-13T08:59:16.608Z,6.60
2023-02-13T09:02:03.089Z,6.50
2023-02-13T09:04:49.480Z,6.60
2023-02-13T09:07:36.180Z,6.80
2023-02-13T09:10:22.636Z,7.20
2023-02-13T09:13:10.636Z,7.80
2023-02-13T09:16:01.559Z,8.40
2023-02-13T09:18:48.778Z,8.70
2023-02-13T09:21:35.777Z,9.00
2023-02-13T09:24:22.257Z,9.10
2023-02-13T09:27:09.194Z,8.90
2023-02-13T09:29:56.948Z,9.10
2023-02-13T09:32:43.301Z,9.20
2023-02-13T09:35:30.099Z,9.40
2023-02-13T09:38:16.745Z,9.50
2023-02-13T09:41:07.813Z,9.40
2023-02-13T09:43:59.136Z,9.30
2023-02-13T09:46:47.579Z,9.00
2023-02-13T09:49:39.218Z,8.50
2023-02-13T09:52:27.483Z,8.70
2023-02-13T09:55:19.214Z,9.10
2023-02-13T09:58:10.740Z,8.60
2023-02-13T10:01:00.681Z,8.80
2023-02-13T10:03:59.360Z,8.60
2023-02-13T10:06:53.565Z,8.90
2023-02-13T10:09:47.574Z,8.50
2023-02-13T10:12:51.878Z,8.70
2023-02-13T10:15:49.704Z,8.60
2023-02-13T10:18:46.073Z,8.60
2023-02-13T10:21:38.646Z,8.30
2023-02-13T10:24:32.612Z,8.20
2023-02-13T10:27:23.738Z,8.00
2023-02-13T10:30:19.807Z,8.00
2023-02-13T10:33:20.619Z,8.10
2023-02-13T10:36:15.151Z,8.10
2023-02-13T10:39:14.287Z,8.10
2023-02-13T10:42:08.508Z,8.10
2023-02-13T10:45:19.676Z,8.10
2023-02-13T10:48:26.893Z,8.10
2023-02-13T10:51:21.380Z,8.00
2023-02-13T10:54:30.684Z,8.40
2023-02-13T10:57:23.530Z,8.50
2023-02-13T11:00:16.646Z,8.60
2023-02-13T11:03:03.527Z,8.70
2023-02-13T11:05:51.444Z,8.90
2023-02-13T11:08:43.196Z,9.20
2023-02-13T11:11:33.189Z,9.40
2023-02-13T11:14:22.525Z,9.60
2023-02-13T11:17:18.133Z,9.80
2023-02-13T11:20:08.056Z,9.80
2023-02-13T11:22:56.248Z,10.40
2023-02-13T11:25:42.895Z,10.70
2023-02-13T11:28:33.096Z,10.90
2023-02-13T11:31:29.004Z,10.90
2023-02-13T11:34:27.725Z,10.70
2023-02-13T11:37:29.455Z,10.80
2023-02-13T11:40:32.558Z,10.80
2023-02-13T11:43:24.902Z,11.00
2023-02-13T11:46:20.105Z,10.50
2023-02-13T11:49:14.541Z,10.90
2023-02-13T11:52:02.576Z,10.80
2023-02-13T11:54:57.463Z,10.90
2023-02-13T11:57:57.494Z,10.80
2023-02-13T12:00:44.867Z,10.70
2023-02-13T12:03:33.772Z,10.90
2023-02-13T12:06:20.894Z,10.80
2023-02-13T12:09:15.497Z,10.60
2023-02-13T12:12:06.461Z,10.70
2023-02-13T12:14:54.564Z,10.90
2023-02-13T12:17:45.055Z,11.00
2023-02-13T12:20:41.284Z,11.30
2023-02-13T12:23:41.560Z,11.40
2023-02-13T12:26:33.717Z,11.40
2023-02-13T12:29:36.285Z,11.20
2023-02-13T12:32:31.780Z,11.40
2023-02-13T12:35:46.367Z,11.30
2023-02-13T12:38:47.032Z,11.20
2023-02-13T12:41:39.937Z,11.10
2023-02-13T12:44:43.555Z,11.20
2023-02-13T12:47:32.378Z,11.20
2023-02-13T12:50:39.479Z,11.10
2023-02-13T12:53:39.800Z,11.10
2023-02-13T12:56:47.004Z,11.20
2023-02-13T12:59:46.435Z,11.10
2023-02-13T13:02:52.837Z,11.00
2023-02-13T13:06:10.876Z,11.00
2023-02-13T13:09:25.947Z,10.90
2023-02-13T13:12:32.553Z,11.00
2023-02-13T13:15:32.628Z,11.10
2023-02-13T13:18:33.210Z,11.20
2023-02-13T13:21:31.511Z,11.20
2023-02-13T13:24:33.646Z,11.10
2023-02-13T13:27:23.191Z,11.10
2023-02-13T13:30:20.716Z,11.10
2023-02-13T13:33:15.721Z,11.00
2023-02-13T13:36:08.849Z,11.10
2023-02-13T13:39:02.805Z,11.10
2023-02-13T13:41:56.366Z,11.20
2023-02-13T13:45:07.144Z,11.20
2023-02-13T13:48:11.377Z,11.10
2023-02-13T13:50:58.861Z,11.10
2023-02-13T13:54:19.217Z,11.20
2023-02-13T13:57:08.808Z,11.20
2023-02-13T14:00:27.940Z,11.10
2023-02-13T14:03:34.393Z,10.90
2023-02-13T14:06:22.400Z,11.00
2023-02-13T14:09:39.897Z,11.00
2023-02-13T14:12:49.591Z,10.80
2023-02-13T14:15:55.008Z,10.90
2023-02-13T14:18:47.774Z,10.90
2023-02-13T14:21:34.421Z,10.80
2023-02-13T14:24:23.398Z,10.70
2023-02-13T14:27:23.155Z,10.70
2023-02-13T14:30:28.943Z,10.60
2023-02-13T14:33:26.660Z,10.50
2023-02-13T14:36:23.038Z,10.50
2023-02-13T14:39:22.951Z,10.50
2023-02-13T14:42:24.678Z,10.50
2023-02-13T14:45:17.320Z,10.40
2023-02-13T14:48:09.009Z,10.40
2023-02-13T14:50:58.037Z,10.30
2023-02-13T14:53:50.970Z,10.30
2023-02-13T14:56:39.913Z,10.40
2023-02-13T14:59:32.639Z,10.40
2023-02-13T15:02:24.056Z,10.40
2023-02-13T15:05:19.902Z,10.30
2023-02-13T15:08:12.723Z,10.30
2023-02-13T15:10:59.791Z,10.40
2023-02-13T15:13:46.585Z,10.30
2023-02-13T15:16:33.067Z,10.30
2023-02-13T15:19:21.873Z,10.20
2023-02-13T15:22:19.774Z,10.20
2023-02-13T15:25:08.879Z,10.20
2023-02-13T15:27:56.602Z,10.20
2023-02-13T15:30:55.112Z,10.20
2023-02-13T15:33:46.637Z,10.20
2023-02-13T15:36:41.014Z,10.20
2023-02-13T15:39:31.195Z,10.10
2023-02-13T15:42:18.181Z,10.10
2023-02-13T15:45:05.483Z,10.00
2023-02-13T15:47:52.920Z,10.00
2023-02-13T15:50:43.797Z,10.00
2023-02-13T15:53:31.087Z,10.10
2023-02-13T15:56:19.267Z,10.00
2023-02-13T15:59:05.919Z,10.10
2023-02-13T16:01:53.610Z,10.00
2023-02-13T16:04:41.999Z,9.90
2023-02-13T16:07:28.404Z,9.90
2023-02-13T16:10:19.421Z,9.80
2023-02-13T16:13:16.626Z,9.70
2023-02-13T16:16:09.567Z,9.70
2023-02-13T16:18:56.265Z,9.60
2023-02-13T16:21:43.416Z,9.60
2023-02-13T16:24:30.735Z,9.60
2023-02-13T16:27:18.156Z,9.50
2023-02-13T16:30:08.538Z,9.40
2023-02-13T16:33:11.264Z,9.40
2023-02-13T16:35:58.916Z,9.40
2023-02-13T16:38:46.293Z,9.30
2023-02-13T16:41:35.598Z,9.20
2023-02-13T16:44:24.705Z,9.10
2023-02-13T16:47:24.919Z,8.90
2023-02-13T16:50:16.124Z,8.80
2023-02-13T16:53:03.723Z,8.70
2023-02-13T16:55:58.573Z,8.60
2023-02-13T16:58:45.151Z,8.50
2023-02-13T17:01:31.545Z,8.40
2023-02-13T17:04:23.662Z,8.40
2023-02-13T17:07:14.732Z,8.20
2023-02-13T17:10:03.162Z,8.00
2023-02-13T17:12:50.958Z,7.70
2023-02-13T17:15:38.292Z,7.50
2023-02-13T17:18:24.860Z,7.30
2023-02-13T17:21:13.938Z,7.20
2023-02-13T17:24:00.645Z,7.00
2023-02-13T17:26:47.194Z,6.90
2023-02-13T17:29:33.557Z,6.80
2023-02-13T17:32:22.002Z,6.80
2023-02-13T17:35:10.178Z,6.80
2023-02-13T17:37:58.632Z,6.60
2023-02-13T17:40:46.210Z,6.60
2023-02-13T17:43:33.110Z,6.40
2023-02-13T17:46:19.681Z,6.20
2023-02-13T17:49:06.374Z,6.00
2023-02-13T17:51:53.215Z,6.00
2023-02-13T17:54:41.289Z,6.10
2023-02-13T17:57:27.737Z,6.10
2023-02-13T18:00:14.874Z,6.10
2023-02-13T18:03:02.297Z,6.20
2023-02-13T18:05:49.973Z,6.20
2023-02-13T18:08:36.800Z,6.10
2023-02-13T18:11:24.585Z,6.20
2023-02-13T18:14:11.149Z,5.90
2023-02-13T18:16:57.737Z,5.70
2023-02-13T18:19:44.061Z,5.60
2023-02-13T18:22:30.964Z,5.60
2023-02-13T18:25:18.310Z,5.60
2023-02-13T18:28:05.984Z,5.70
2023-02-13T18:30:52.618Z,5.60
2023-02-13T18:33:39.457Z,5.50
2023-02-13T18:36:25.650Z,5.30
2023-02-13T18:39:11.945Z,5.10
2023-02-13T18:41:58.392Z,5.10
2023-02-13T18:44:46.111Z,5.10
2023-02-13T18:47:35.636Z,5.00
2023-02-13T18:50:22.158Z,4.80
2023-02-13T18:53:08.876Z,4.70
2023-02-13T18:56:01.636Z,4.60
2023-02-13T18:58:48.227Z,4.60
2023-02-13T19:01:36.592Z,4.60
2023-02-13T19:04:23.328Z,4.50
2023-02-13T19:07:09.886Z,4.50
2023-02-13T19:09:56.543Z,4.50
2023-02-13T19:12:43.668Z,4.50
2023-02-13T19:15:30.243Z,4.50
2023-02-13T19:18:18.461Z,4.40
2023-02-13T19:21:05.522Z,4.50
2023-02-13T19:23:53.227Z,4.40
2023-02-13T19:26:40.028Z,4.30
2023-02-13T19:29:26.508Z,4.40
2023-02-13T19:32:13.035Z,4.40
2023-02-13T19:35:01.376Z,4.40
2023-02-13T19:37:47.674Z,4.50
2023-02-13T19:40:34.853Z,4.60
2023-02-13T19:43:21.998Z,4.70
2023-02-13T19:46:13.012Z,4.80
2023-02-13T19:49:00.111Z,4.90
2023-02-13T19:51:48.280Z,4.80
2023-02-13T19:54:35.279Z,4.70
2023-02-13T19:57:21.886Z,4.50
2023-02-13T20:00:10.017Z,4.40
2023-02-13T20:03:03.726Z,4.40
2023-02-13T20:05:50.318Z,4.30
2023-02-13T20:08:38.455Z,4.30
2023-02-13T20:11:25.025Z,4.30
2023-02-13T20:14:14.957Z,4.20
2023-02-13T20:17:02.083Z,4.20
2023-02-13T20:19:48.646Z,4.10
2023-02-13T20:22:35.419Z,4.10
2023-02-13T20:25:24.637Z,4.10
2023-02-13T20:28:11.498Z,4.20
2023-02-13T20:30:58.833Z,4.20
2023-02-13T20:33:46.305Z,4.20
2023-02-13T20:36:33.340Z,4.20
2023-02-13T20:39:20.017Z,4.20
2023-02-13T20:42:07.902Z,4.20
2023-02-13T20:44:54.731Z,4.10
2023-02-13T20:47:42.784Z,4.10
2023-02-13T20:50:29.456Z,4.10
2023-02-13T20:53:16.094Z,4.10
2023-02-13T20:56:05.222Z,4.00
2023-02-13T20:58:56.066Z,4.00
2023-02-13T21:01:43.983Z,4.00
2023-02-13T21:04:32.575Z,4.00
2023-02-13T21:07:19.114Z,3.90
2023-02-13T21:10:06.711Z,4.00
2023-02-13T21:12:53.224Z,3.90
2023-02-13T21:15:41.003Z,3.90
2023-02-13T21:18:27.594Z,3.80
2023-02-13T21:21:15.030Z,3.70
2023-02-13T21:24:08.094Z,3.60
2023-02-13T21:26:54.917Z,3.50
2023-02-13T21:29:41.344Z,3.40
2023-02-13T21:32:29.006Z,3.40
2023-02-13T21:35:15.587Z,3.40
2023-02-13T21:38:02.008Z,3.40
2023-02-13T21:40:48.536Z,3.40
2023-02-13T21:43:37.601Z,3.50
2023-02-13T21:46:26.717Z,3.50
2023-02-13T21:49:16.431Z,3.50
2023-02-13T21:52:03.215Z,3.50
2023-02-13T21:54:49.987Z,3.40
2023-02-13T21:57:36.792Z,3.40
2023-02-13T22:00:23.447Z,3.20
2023-02-13T22:03:09.961Z,3.20
2023-02-13T22:05:58.106Z,3.20
2023-02-13T22:08:44.917Z,3.10
2023-02-13T22:11:32.257Z,3.20
2023-02-13T22:14:19.191Z,3.20
2023-02-13T22:17:05.963Z,3.10
2023-02-13T22:19:52.620Z,3.00
2023-02-13T22:22:40.262Z,3.00
2023-02-13T22:25:26.829Z,3.00
2023-02-13T22:28:13.310Z,3.00
2023-02-13T22:31:00.273Z,2.90
2023-02-13T22:33:52.356Z,2.90
2023-02-13T22:36:45.082Z,2.80
2023-02-13T22:39:32.944Z,2.80
2023-02-13T22:42:19.564Z,2.70
2023-02-13T22:45:06.444Z,2.70
2023-02-13T22:47:53.312Z,2.70
2023-02-13T22:50:39.826Z,2.60
2023-02-13T22:53:26.206Z,2.60
2023-02-13T22:56:14.202Z,2.70
2023-02-13T22:59:01.254Z,2.80
2023-02-13T23:01:48.086Z,2.80
2023-02-13T23:04:34.638Z,2.70
2023-02-13T23:07:21.579Z,2.70
2023-02-13T23:10:09.061Z,2.90
2023-02-13T23:12:56.213Z,2.90
2023-02-13T23:15:42.520Z,3.00
2023-02-13T23:18:28.602Z,2.80
2023-02-13T23:21:15.187Z,2.80
2023-02-13T23:24:01.985Z,2.70
2023-02-13T23:26:48.389Z,2.60
2023-02-13T23:29:35.936Z,2.60
2023-02-13T23:32:22.762Z,2.80
2023-02-13T23:35:10.634Z,2.60
2023-02-13T23:37:57.134Z,2.60
2023-02-13T23:40:43.922Z,2.50
2023-02-13T23:43:30.386Z,2.50
2023-02-13T23:46:18.192Z,2.30
2023-02-13T23:49:07.204Z,2.20
2023-02-13T23:51:54.508Z,2.10
2023-02-13T23:54:41.123Z,2.00
2023-02-13T23:57:27.616Z,2.00
